EFMA/MHQ METAR and TAF weather

Enter ICAO airport designator
Station Type Date Time Source
EFMA METAR 2021/05/14 03:50 UTC NOAA

EFMA 140350Z AUTO 00000KT CAVOK 09/08 Q1006


Station Type Date Time Source
EFMA Decoded METAR 2021/05/14 03:50 UTC NOAA

Mariehamn / Aland Island, Finland (EFMA) 60-07N 019-54E
May 13, 2021 - 11:50 PM EDT / 2021.05.14 0350 UTC
Wind: Calm:0
Visibility: greater than 7 mile(s):0
Temperature: 48 F (9 C)
Dew Point: 46 F (8 C)
Relative Humidity: 93%
Pressure (altimeter): 29.71 in. Hg (1006 hPa)
ob: EFMA 140350Z AUTO 00000KT CAVOK 09/08 Q1006
cycle: 4

Station Type Date Time Source
EFMA TAF 2014/05/01 21:18 UTC NOAA

TAF TAF EFMA 302037Z 3021/0106 08008KT CAVOK
TEMPO 3023/0101 02010KT 6000 RASN
BECMG 0101/0103 01012KT 4000 RASN BKN010 OVC025

Example: see airport list